TimeMDT,TemperatureF,Dew PointF,Humidity,Sea Level PressureIn,VisibilityMPH,Wind Direction,Wind SpeedMPH,Gust SpeedMPH,PrecipitationIn,Events,Conditions,WindDirDegrees,DateUTC
12:53 AM,60.1,51.1,72,29.84,10.0,Calm,Calm,-,N/A,,Clear,0,2013-07-28 06:53:00
1:53 AM,61.0,52.0,72,29.82,10.0,South,5.8,-,N/A,,Clear,170,2013-07-28 07:53:00
2:53 AM,59.0,52.0,78,29.81,10.0,SE,6.9,-,N/A,,Clear,140,2013-07-28 08:53:00
3:53 AM,57.9,52.0,81,29.81,10.0,Calm,Calm,-,N/A,,Clear,0,2013-07-28 09:53:00
4:53 AM,57.0,52.0,83,29.81,10.0,SSE,5.8,-,N/A,,Clear,160,2013-07-28 10:53:00
5:53 AM,55.9,52.0,87,29.82,10.0,SSE,4.6,-,N/A,,Clear,160,2013-07-28 11:53:00
6:53 AM,57.9,53.1,84,29.81,10.0,Calm,Calm,-,N/A,,Clear,0,2013-07-28 12:53:00
7:53 AM,64.0,54.0,70,29.81,10.0,SE,5.8,-,N/A,,Clear,140,2013-07-28 13:53:00
8:53 AM,66.9,54.0,63,29.82,10.0,SSE,6.9,-,N/A,,Clear,150,2013-07-28 14:53:00
9:53 AM,71.1,53.1,53,29.81,10.0,Variable,5.8,-,N/A,,Clear,0,2013-07-28 15:53:00
10:53 AM,75.0,53.1,46,29.81,10.0,Variable,4.6,-,N/A,,Partly Cloudy,0,2013-07-28 16:53:00
11:53 AM,77.0,52.0,42,29.79,10.0,Variable,3.5,-,N/A,,Overcast,0,2013-07-28 17:53:00
12:53 PM,81.0,48.9,33,29.76,10.0,Variable,6.9,-,N/A,,Clear,0,2013-07-28 18:53:00
1:53 PM,84.0,48.0,28,29.73,10.0,SSE,12.7,-,N/A,,Partly Cloudy,160,2013-07-28 19:53:00
2:36 PM,80.6,48.2,32,29.86,10.0,SSE,12.7,17.3,N/A,Thunderstorm,Thunderstorm,150,2013-07-28 20:36:00
2:53 PM,79.0,48.0,34,29.73,10.0,SSE,15.0,-,N/A,Thunderstorm,Thunderstorm,160,2013-07-28 20:53:00
3:53 PM,66.0,55.9,70,29.81,2.0,West,12.7,-,0.07,Rain-Thunderstorm,Heavy Thunderstorms and Rain,270,2013-07-28 21:53:00
4:00 PM,64.4,55.4,73,29.90,1.0,SW,9.2,-,0.12,Rain-Thunderstorm,Heavy Thunderstorms and Rain,230,2013-07-28 22:00:00
4:09 PM,64.4,57.2,77,29.92,3.0,Variable,3.5,-,0.17,Rain-Thunderstorm,Light Thunderstorms and Rain,0,2013-07-28 22:09:00
4:53 PM,66.0,55.0,68,29.83,10.0,East,15.0,-,0.17,,Scattered Clouds,90,2013-07-28 22:53:00
5:27 PM,64.4,55.4,73,29.94,8.0,ENE,15.0,-,0.00,Rain-Thunderstorm,Light Thunderstorms and Rain,70,2013-07-28 23:27:00
5:53 PM,62.1,55.0,78,29.87,5.0,ENE,13.8,-,0.09,Rain-Thunderstorm,Rain,70,2013-07-28 23:53:00
6:01 PM,62.6,55.4,77,29.95,7.0,ENE,15.0,23.0,0.01,Rain-Thunderstorm,Light Rain,60,2013-07-29 00:01:00
6:42 PM,60.8,57.2,88,29.95,1.8,ENE,17.3,-,0.13,Rain-Thunderstorm,Heavy Thunderstorms and Rain,60,2013-07-29 00:42:00
6:50 PM,62.6,55.4,77,29.96,3.0,ENE,12.7,-,0.18,Rain-Thunderstorm,Light Thunderstorms and Rain,70,2013-07-29 00:50:00
6:53 PM,62.1,55.9,80,29.87,7.0,ENE,11.5,-,0.18,Rain-Thunderstorm,Light Thunderstorms and Rain,60,2013-07-29 00:53:00
7:38 PM,62.6,55.4,77,29.97,10.0,SE,3.5,-,0.00,,Overcast,140,2013-07-29 01:38:00
7:53 PM,62.1,55.9,80,29.87,10.0,ESE,8.1,-,0.00,,Mostly Cloudy,120,2013-07-29 01:53:00
8:53 PM,61.0,55.0,81,29.87,10.0,SSE,3.5,-,N/A,,Clear,150,2013-07-29 02:53:00
9:53 PM,61.0,55.0,81,29.86,10.0,Calm,Calm,-,N/A,,Partly Cloudy,0,2013-07-29 03:53:00
10:53 PM,59.0,55.9,90,29.85,10.0,Calm,Calm,-,N/A,,Clear,0,2013-07-29 04:53:00
11:53 PM,57.9,55.9,93,29.84,10.0,West,4.6,-,N/A,,Clear,260,2013-07-29 05:53:00